Time;durP1;ratioP1;P1;durP2;ratioP2;P2;SDS_P1;SDS_P2;PMS_P1;PMS_P2;Temp;Humidity;BMP_temperature;BMP_pressure;BME280_temperature;BME280_humidity;BME280_pressure;Samples;Min_cycle;Max_cycle;Signal;HPM_P1;HPM_P2
2021/03/22 00:01:53;;;;;;;39.20;4.50;;;;;;;;;;5068179;28;20087;-64
2021/03/22 00:04:19;;;;;;;42.38;6.43;;;;;;;;;;5070204;28;20106;-64
2021/03/22 00:06:44;;;;;;;36.40;4.70;;;;;;;;;;5069134;28;20392;-64
2021/03/22 00:09:09;;;;;;;33.85;4.35;;;;;;;;;;5069820;28;20029;-64
2021/03/22 00:11:34;;;;;;;42.03;4.18;;;;;;;;;;5069662;28;20028;-64
2021/03/22 00:13:59;;;;;;;32.97;4.20;;;;;;;;;;5069796;28;20021;-64
2021/03/22 00:16:25;;;;;;;31.10;4.38;;;;;;;;;;5071391;28;20573;-64
2021/03/22 00:18:50;;;;;;;53.83;6.72;;;;;;;;;;5074010;28;20020;-64
2021/03/22 00:21:16;;;;;;;39.35;5.80;;;;;;;;;;5073532;28;20100;-65
2021/03/22 00:23:41;;;;;;;41.45;4.05;;;;;;;;;;5072199;28;20542;-64
2021/03/22 00:26:06;;;;;;;29.55;4.63;;;;;;;;;;5073554;28;20385;-64
2021/03/22 00:28:38;;;;;;;24.65;3.75;;;;;;;;;;5073283;28;20059;-64
2021/03/22 00:31:03;;;;;;;27.00;4.28;;;;;;;;;;5072846;28;20039;-64
2021/03/22 00:33:29;;;;;;;32.70;5.75;;;;;;;;;;5070719;28;20025;-64
2021/03/22 00:35:54;;;;;;;32.70;6.60;;;;;;;;;;5073733;28;20443;-64
2021/03/22 00:38:19;;;;;;;36.92;4.63;;;;;;;;;;5072843;28;20299;-64
2021/03/22 00:40:46;;;;;;;43.80;4.80;;;;;;;;;;5072605;28;20043;-64
2021/03/22 00:43:11;;;;;;;46.30;5.85;;;;;;;;;;5071388;28;20082;-64
2021/03/22 00:45:37;;;;;;;25.98;4.57;;;;;;;;;;5072633;28;20028;-64
2021/03/22 00:48:02;;;;;;;23.90;5.05;;;;;;;;;;5073321;28;20056;-64
2021/03/22 00:50:27;;;;;;;34.65;6.03;;;;;;;;;;5073142;28;20055;-64
2021/03/22 00:52:53;;;;;;;41.83;4.40;;;;;;;;;;5073610;28;20491;-65
2021/03/22 00:55:19;;;;;;;26.83;4.88;;;;;;;;;;5072606;28;20266;-65
2021/03/22 00:57:44;;;;;;;44.78;5.95;;;;;;;;;;5072617;28;20024;-65
2021/03/22 01:00:09;;;;;;;27.10;3.72;;;;;;;;;;5071905;28;20073;-64
2021/03/22 01:02:35;;;;;;;29.85;4.97;;;;;;;;;;5073372;28;20025;-65
2021/03/22 01:05:00;;;;;;;33.30;4.72;;;;;;;;;;5071240;28;20052;-64
2021/03/22 01:07:25;;;;;;;38.33;5.22;;;;;;;;;;5072997;28;20026;-64
2021/03/22 01:09:50;;;;;;;43.03;4.93;;;;;;;;;;5072591;28;20107;-64
2021/03/22 01:12:16;;;;;;;23.83;4.45;;;;;;;;;;5073081;28;20020;-64
2021/03/22 01:14:41;;;;;;;28.58;5.10;;;;;;;;;;5072985;28;20020;-64
2021/03/22 01:17:06;;;;;;;39.20;4.07;;;;;;;;;;5072123;28;20078;-64
2021/03/22 01:19:32;;;;;;;36.05;6.80;;;;;;;;;;5072664;28;20128;-64
2021/03/22 01:21:58;;;;;;;20.92;4.70;;;;;;;;;;5073416;28;20476;-64
2021/03/22 01:24:25;;;;;;;28.23;5.68;;;;;;;;;;5070877;28;20032;-64
2021/03/22 01:26:52;;;;;;;41.40;5.88;;;;;;;;;;5062383;22;20440;-85
2021/03/22 01:29:19;;;;;;;32.78;4.72;;;;;;;;;;5049556;28;20047;-85
2021/03/22 01:31:44;;;;;;;28.92;4.47;;;;;;;;;;5050064;28;20029;-84
2021/03/22 01:34:10;;;;;;;32.63;4.68;;;;;;;;;;5049905;28;20443;-85
2021/03/22 01:36:35;;;;;;;39.75;6.40;;;;;;;;;;5050714;28;20017;-85
2021/03/22 01:39:05;;;;;;;37.75;5.53;;;;;;;;;;5049266;28;20047;-85
2021/03/22 01:41:49;;;;;;;34.65;5.35;;;;;;;;;;5048968;28;20063;-85
2021/03/22 01:44:14;;;;;;;35.33;5.75;;;;;;;;;;5048680;28;20660;-84
2021/03/22 01:46:45;;;;;;;31.33;4.80;;;;;;;;;;5049418;28;20024;-84
2021/03/22 01:49:11;;;;;;;36.50;5.10;;;;;;;;;;5046734;28;20365;-85
2021/03/22 01:51:36;;;;;;;35.35;7.22;;;;;;;;;;5061218;28;20078;-84
2021/03/22 01:54:02;;;;;;;33.08;5.68;;;;;;;;;;5065590;28;20028;-84
2021/03/22 01:56:29;;;;;;;39.67;6.18;;;;;;;;;;5065756;28;20188;-83
2021/03/22 01:58:55;;;;;;;41.50;6.38;;;;;;;;;;5064632;28;20060;-85
2021/03/22 02:01:21;;;;;;;28.20;4.95;;;;;;;;;;5053680;28;20025;-84
2021/03/22 02:03:47;;;;;;;33.45;5.38;;;;;;;;;;5039335;28;20096;-84
2021/03/22 02:06:12;;;;;;;41.35;6.50;;;;;;;;;;5049785;28;20051;-86
2021/03/22 02:08:39;;;;;;;33.03;5.90;;;;;;;;;;5048393;28;20028;-86
2021/03/22 02:11:22;;;;;;;34.17;6.22;;;;;;;;;;5048478;28;20053;-85
2021/03/22 02:13:48;;;;;;;39.28;5.95;;;;;;;;;;5047773;28;20016;-84
2021/03/22 02:16:15;;;;;;;52.35;6.55;;;;;;;;;;5047948;28;20442;-84
2021/03/22 02:18:40;;;;;;;41.50;5.25;;;;;;;;;;5047851;28;20107;-84
2021/03/22 02:21:18;;;;;;;48.97;6.73;;;;;;;;;;5048201;28;20051;-85
2021/03/22 02:24:02;;;;;;;39.88;7.35;;;;;;;;;;5048748;28;20274;-85
2021/03/22 02:26:45;;;;;;;35.33;5.88;;;;;;;;;;5046722;28;20036;-85
2021/03/22 02:29:29;;;;;;;45.88;7.45;;;;;;;;;;5045315;28;20676;-84
2021/03/22 02:32:27;;;;;;;46.33;7.55;;;;;;;;;;5047207;28;20124;-84
2021/03/22 02:34:55;;;;;;;40.28;6.75;;;;;;;;;;5026163;28;20037;-85
2021/03/22 02:37:37;;;;;;;43.00;6.55;;;;;;;;;;5049225;28;20017;-85
2021/03/22 02:40:02;;;;;;;37.33;6.50;;;;;;;;;;5048139;28;20480;-85
2021/03/22 02:42:28;;;;;;;36.45;6.15;;;;;;;;;;5048150;28;20028;-84
2021/03/22 02:44:54;;;;;;;51.03;6.60;;;;;;;;;;5046899;28;20021;-84
2021/03/22 02:47:22;;;;;;;33.33;6.72;;;;;;;;;;5046150;28;20013;-85
2021/03/22 02:49:49;;;;;;;51.17;8.77;;;;;;;;;;5046969;28;20040;-84
2021/03/22 02:52:27;;;;;;;26.95;6.75;;;;;;;;;;5049414;28;20028;-84
2021/03/22 02:55:06;;;;;;;48.75;7.65;;;;;;;;;;5050009;28;20021;-85
2021/03/22 02:57:48;;;;;;;40.42;7.47;;;;;;;;;;5047382;28;20021;-84
2021/03/22 03:00:40;;;;;;;48.17;7.20;;;;;;;;;;5036586;28;20060;-85
2021/03/22 03:03:13;;;;;;;50.47;8.15;;;;;;;;;;5044300;28;20025;-85
2021/03/22 03:05:38;;;;;;;51.17;6.95;;;;;;;;;;5048107;28;20017;-85
2021/03/22 03:08:12;;;;;;;39.50;5.97;;;;;;;;;;5047366;28;20032;-84
2021/03/22 03:10:37;;;;;;;41.78;7.40;;;;;;;;;;5047953;28;20486;-84
2021/03/22 03:13:03;;;;;;;38.28;6.80;;;;;;;;;;5048280;28;20024;-85
2021/03/22 03:15:28;;;;;;;46.22;8.82;;;;;;;;;;5049329;28;20025;-85
2021/03/22 03:17:53;;;;;;;38.25;7.30;;;;;;;;;;5046747;28;20027;-85
2021/03/22 03:20:26;;;;;;;39.65;7.13;;;;;;;;;;5046835;28;20542;-85
2021/03/22 03:22:52;;;;;;;49.53;8.55;;;;;;;;;;5048664;28;20033;-84
2021/03/22 03:25:17;;;;;;;37.97;6.88;;;;;;;;;;5048715;28;20020;-85
2021/03/22 03:27:42;;;;;;;30.75;8.32;;;;;;;;;;5045410;28;20029;-85
2021/03/22 03:30:10;;;;;;;47.10;7.80;;;;;;;;;;5047875;28;20051;-85
2021/03/22 03:32:35;;;;;;;50.25;8.90;;;;;;;;;;5047844;28;20017;-84
2021/03/22 03:35:00;;;;;;;53.80;8.27;;;;;;;;;;5047370;28;20252;-85
2021/03/22 03:37:26;;;;;;;40.47;8.55;;;;;;;;;;5047813;28;20386;-85
2021/03/22 03:39:51;;;;;;;35.05;7.30;;;;;;;;;;5050144;28;20044;-84
2021/03/22 03:42:17;;;;;;;33.38;8.98;;;;;;;;;;5046012;28;20107;-84
2021/03/22 03:44:42;;;;;;;47.30;11.90;;;;;;;;;;5047559;28;20025;-85
2021/03/22 03:47:07;;;;;;;44.60;10.73;;;;;;;;;;5045894;28;20028;-85
2021/03/22 03:49:33;;;;;;;35.67;9.15;;;;;;;;;;5047424;28;20058;-85
2021/03/22 03:51:58;;;;;;;50.05;11.48;;;;;;;;;;5045594;28;20484;-84
2021/03/22 03:54:23;;;;;;;51.08;12.15;;;;;;;;;;5047511;28;20028;-85
2021/03/22 03:56:49;;;;;;;48.20;11.55;;;;;;;;;;5047423;28;20048;-84
2021/03/22 03:59:14;;;;;;;51.53;13.45;;;;;;;;;;5046906;28;20107;-85
2021/03/22 04:01:39;;;;;;;50.47;13.65;;;;;;;;;;5048118;28;20033;-85
2021/03/22 04:04:05;;;;;;;59.50;15.32;;;;;;;;;;5049298;28;20028;-85
2021/03/22 04:06:31;;;;;;;58.15;14.70;;;;;;;;;;5045571;28;20409;-84
2021/03/22 04:09:03;;;;;;;50.95;12.40;;;;;;;;;;5046323;28;20756;-85
2021/03/22 04:11:30;;;;;;;59.50;12.50;;;;;;;;;;5047674;28;20119;-84
2021/03/22 04:13:56;;;;;;;38.83;13.02;;;;;;;;;;5045198;28;20044;-85
2021/03/22 04:16:22;;;;;;;53.55;13.05;;;;;;;;;;5045459;28;20044;-83
2021/03/22 04:18:47;;;;;;;46.13;13.40;;;;;;;;;;5046047;28;20021;-84
2021/03/22 04:21:15;;;;;;;51.50;14.00;;;;;;;;;;5046195;28;20396;-85
2021/03/22 04:23:41;;;;;;;63.35;15.80;;;;;;;;;;5047070;28;20044;-85
2021/03/22 04:26:06;;;;;;;54.95;16.88;;;;;;;;;;5044157;28;20025;-85
2021/03/22 04:28:32;;;;;;;58.00;15.43;;;;;;;;;;5046044;28;20117;-85
2021/03/22 04:30:58;;;;;;;60.75;15.38;;;;;;;;;;5037705;28;20029;-84
2021/03/22 04:33:23;;;;;;;61.78;15.00;;;;;;;;;;5041136;28;20485;-84
2021/03/22 04:35:48;;;;;;;53.58;13.65;;;;;;;;;;5046126;28;20559;-85
2021/03/22 04:38:14;;;;;;;65.28;14.80;;;;;;;;;;5046621;28;20025;-85
2021/03/22 04:40:39;;;;;;;58.92;14.35;;;;;;;;;;5045693;28;20107;-84
2021/03/22 04:43:04;;;;;;;62.08;15.65;;;;;;;;;;5046050;28;20017;-85
2021/03/22 04:45:30;;;;;;;52.45;14.98;;;;;;;;;;5043621;28;20021;-85
2021/03/22 04:47:56;;;;;;;49.55;14.45;;;;;;;;;;5046416;28;20108;-85
2021/03/22 04:50:22;;;;;;;55.13;15.55;;;;;;;;;;5045622;28;20075;-85
2021/03/22 04:52:47;;;;;;;58.15;15.18;;;;;;;;;;5048284;28;20025;-84
2021/03/22 04:55:13;;;;;;;56.08;15.07;;;;;;;;;;5047043;28;20481;-83
2021/03/22 04:57:38;;;;;;;57.80;16.77;;;;;;;;;;5046961;28;20112;-84
2021/03/22 05:00:05;;;;;;;60.53;17.60;;;;;;;;;;5046011;28;20052;-84
2021/03/22 05:02:31;;;;;;;67.85;17.05;;;;;;;;;;5047155;28;20023;-85
2021/03/22 05:04:56;;;;;;;57.72;15.93;;;;;;;;;;5049088;28;20509;-85
2021/03/22 05:07:21;;;;;;;72.65;17.52;;;;;;;;;;5050165;28;20033;-84
2021/03/22 05:09:46;;;;;;;61.08;17.45;;;;;;;;;;5049702;28;20032;-85
2021/03/22 05:12:12;;;;;;;60.05;15.57;;;;;;;;;;5049924;28;20028;-85
2021/03/22 05:14:37;;;;;;;75.97;18.80;;;;;;;;;;5051596;28;20059;-85
2021/03/22 05:17:03;;;;;;;60.38;18.80;;;;;;;;;;5051700;28;20548;-84
2021/03/22 05:19:28;;;;;;;61.83;17.27;;;;;;;;;;5050288;28;20504;-84
2021/03/22 05:21:57;;;;;;;60.55;17.58;;;;;;;;;;5050373;28;20021;-85
2021/03/22 05:24:23;;;;;;;69.45;18.50;;;;;;;;;;5049137;28;20021;-84
2021/03/22 05:26:52;;;;;;;77.20;18.88;;;;;;;;;;5049834;28;20032;-85
2021/03/22 05:29:18;;;;;;;60.10;19.20;;;;;;;;;;5049455;28;20031;-84
2021/03/22 05:31:43;;;;;;;67.70;20.13;;;;;;;;;;5047848;28;20136;-85
2021/03/22 05:34:09;;;;;;;56.80;15.85;;;;;;;;;;5045528;28;20463;-85
2021/03/22 05:36:34;;;;;;;46.67;14.93;;;;;;;;;;5049334;28;20560;-85
2021/03/22 05:39:00;;;;;;;49.63;13.40;;;;;;;;;;5050464;28;20021;-84
2021/03/22 05:41:26;;;;;;;54.50;14.20;;;;;;;;;;5051599;28;20029;-85
2021/03/22 05:44:02;;;;;;;53.53;10.75;;;;;;;;;;5043561;28;20055;-85
2021/03/22 05:46:39;;;;;;;51.42;11.35;;;;;;;;;;5048311;28;20025;-85
2021/03/22 05:49:22;;;;;;;43.88;10.30;;;;;;;;;;5048596;28;20155;-85
2021/03/22 05:51:47;;;;;;;52.72;10.88;;;;;;;;;;5048430;28;20033;-85
2021/03/22 05:54:37;;;;;;;44.40;13.20;;;;;;;;;;5049182;28;20049;-85
2021/03/22 05:57:14;;;;;;;57.70;12.93;;;;;;;;;;5050284;28;20021;-84
2021/03/22 06:00:00;;;;;;;48.05;12.88;;;;;;;;;;5051652;28;20036;-84
2021/03/22 06:02:29;;;;;;;46.67;13.60;;;;;;;;;;5042869;28;20029;-85
2021/03/22 06:05:08;;;;;;;47.78;13.50;;;;;;;;;;5046824;28;20047;-86
2021/03/22 06:07:42;;;;;;;70.83;15.43;;;;;;;;;;5047638;28;20119;-85
2021/03/22 06:10:10;;;;;;;52.80;14.95;;;;;;;;;;5046922;28;20691;-85
2021/03/22 06:12:39;;;;;;;49.58;15.32;;;;;;;;;;5046499;28;20116;-85
2021/03/22 06:15:22;;;;;;;54.83;15.43;;;;;;;;;;5051678;28;20040;-85
2021/03/22 06:18:06;;;;;;;58.78;13.02;;;;;;;;;;5054969;28;20033;-85
2021/03/22 06:20:34;;;;;;;59.38;14.40;;;;;;;;;;5049432;28;20084;-85
2021/03/22 06:23:09;;;;;;;64.75;16.55;;;;;;;;;;5056898;28;20025;-85
2021/03/22 06:25:37;;;;;;;54.22;13.98;;;;;;;;;;5053785;28;20112;-84
2021/03/22 06:28:11;;;;;;;52.20;12.50;;;;;;;;;;5057587;28;20087;-85
2021/03/22 06:30:37;;;;;;;52.95;15.90;;;;;;;;;;5057468;28;20017;-85
2021/03/22 06:33:10;;;;;;;56.58;13.57;;;;;;;;;;5047227;28;20355;-85
2021/03/22 06:35:39;;;;;;;44.65;13.52;;;;;;;;;;5045784;28;20083;-86
2021/03/22 06:38:04;;;;;;;55.80;14.13;;;;;;;;;;5046878;28;20025;-86
2021/03/22 06:40:32;;;;;;;65.80;15.77;;;;;;;;;;5044696;28;20079;-86
2021/03/22 06:43:17;;;;;;;54.58;13.90;;;;;;;;;;5039571;28;20064;-86
2021/03/22 06:46:09;;;;;;;60.80;15.20;;;;;;;;;;5045480;28;20025;-85
2021/03/22 06:48:36;;;;;;;57.92;14.50;;;;;;;;;;5047388;28;20454;-85
2021/03/22 06:51:15;;;;;;;61.10;18.55;;;;;;;;;;5046969;28;20484;-85
2021/03/22 06:53:48;;;;;;;69.95;16.05;;;;;;;;;;5032089;28;20091;-86
2021/03/22 06:56:14;;;;;;;78.18;17.02;;;;;;;;;;5046788;28;20477;-85
2021/03/22 06:58:59;;;;;;;58.90;18.35;;;;;;;;;;5046777;28;20082;-86
2021/03/22 07:01:30;;;;;;;62.83;18.92;;;;;;;;;;5042038;28;20574;-86
2021/03/22 07:04:16;;;;;;;76.88;20.20;;;;;;;;;;5039626;28;20032;-86
2021/03/22 07:06:42;;;;;;;51.60;17.63;;;;;;;;;;5047110;28;20090;-87
2021/03/22 07:09:27;;;;;;;59.28;18.20;;;;;;;;;;5047688;28;20025;-86
2021/03/22 07:11:55;;;;;;;57.95;18.95;;;;;;;;;;5052305;28;20037;-87
2021/03/22 07:14:28;;;;;;;80.07;23.08;;;;;;;;;;5047281;28;20488;-87
2021/03/22 07:17:06;;;;;;;66.10;20.08;;;;;;;;;;5046082;28;20035;-87
2021/03/22 07:19:37;;;;;;;66.05;20.35;;;;;;;;;;5047638;28;20028;-86
2021/03/22 07:22:05;;;;;;;55.85;19.52;;;;;;;;;;5047779;28;20029;-86
2021/03/22 07:24:45;;;;;;;62.22;19.17;;;;;;;;;;5061486;28;20040;-87
2021/03/22 07:27:30;;;;;;;74.03;20.80;;;;;;;;;;5054520;22;20102;-67
2021/03/22 07:30:04;;;;;;;56.72;18.23;;;;;;;;;;5038301;28;20099;-66
2021/03/22 07:32:32;;;;;;;51.10;18.85;;;;;;;;;;5040146;28;20022;-66
2021/03/22 07:35:10;;;;;;;54.58;19.35;;;;;;;;;;5046299;28;20493;-66
2021/03/22 07:37:45;;;;;;;65.93;19.90;;;;;;;;;;5049197;28;20020;-66
2021/03/22 07:40:21;;;;;;;59.30;19.25;;;;;;;;;;5049342;28;20025;-67
2021/03/22 07:43:06;;;;;;;81.93;20.60;;;;;;;;;;5048520;28;20021;-65
2021/03/22 07:45:50;;;;;;;61.13;18.27;;;;;;;;;;4990567;28;20061;-67
2021/03/22 07:48:21;;;;;;;63.00;20.15;;;;;;;;;;5048919;28;20188;-67
2021/03/22 07:50:46;;;;;;;57.50;18.63;;;;;;;;;;5050555;28;20051;-67
2021/03/22 07:53:14;;;;;;;43.70;17.25;;;;;;;;;;5049606;28;20024;-68
2021/03/22 07:55:45;;;;;;;44.42;16.75;;;;;;;;;;5049164;28;20267;-67
2021/03/22 07:58:39;;;;;;;51.47;18.85;;;;;;;;;;5047423;28;20375;-67
2021/03/22 08:01:10;;;;;;;43.65;15.32;;;;;;;;;;4990652;28;20030;-67
2021/03/22 08:03:54;;;;;;;43.53;16.10;;;;;;;;;;5050084;28;20027;-67
2021/03/22 08:06:39;;;;;;;49.95;15.85;;;;;;;;;;5043221;28;20428;-67
2021/03/22 08:09:04;;;;;;;40.85;16.13;;;;;;;;;;5048337;28;20033;-67
2021/03/22 08:11:35;;;;;;;39.50;14.60;;;;;;;;;;5049344;28;20021;-68
2021/03/22 08:14:18;;;;;;;54.22;15.40;;;;;;;;;;5050095;28;20743;-67
2021/03/22 08:17:01;;;;;;;53.08;14.63;;;;;;;;;;5049052;28;20370;-68
2021/03/22 08:19:34;;;;;;;50.03;16.60;;;;;;;;;;5049855;28;20108;-67
2021/03/22 08:22:00;;;;;;;52.85;17.60;;;;;;;;;;5047927;28;20060;-68
2021/03/22 08:24:54;;;;;;;51.50;18.73;;;;;;;;;;5049742;28;20060;-67
2021/03/22 08:27:20;;;;;;;59.72;18.95;;;;;;;;;;4993693;28;20046;-67
2021/03/22 08:29:52;;;;;;;45.63;18.63;;;;;;;;;;5047335;28;20362;-67
2021/03/22 08:32:17;;;;;;;59.40;20.30;;;;;;;;;;5049386;28;20063;-68
2021/03/22 08:34:49;;;;;;;48.95;19.27;;;;;;;;;;5049571;28;20036;-68
2021/03/22 08:37:20;;;;;;;55.05;19.45;;;;;;;;;;5049402;28;20017;-68
2021/03/22 08:39:45;;;;;;;50.00;20.17;;;;;;;;;;5052665;28;20101;-68
2021/03/22 08:42:17;;;;;;;54.30;18.75;;;;;;;;;;5053475;28;20104;-67
2021/03/22 08:44:45;;;;;;;63.33;18.70;;;;;;;;;;5052704;28;20325;-67
2021/03/22 08:47:20;;;;;;;55.33;17.48;;;;;;;;;;5052600;28;20080;-67
2021/03/22 08:49:53;;;;;;;49.50;16.17;;;;;;;;;;5053010;28;20013;-68
2021/03/22 08:52:20;;;;;;;50.10;15.48;;;;;;;;;;5053515;28;20276;-67
2021/03/22 08:54:46;;;;;;;39.13;13.48;;;;;;;;;;5052922;28;20465;-67
2021/03/22 08:57:25;;;;;;;32.55;12.60;;;;;;;;;;5052859;28;20071;-67
2021/03/22 09:00:10;;;;;;;36.60;12.50;;;;;;;;;;5051901;28;20005;-67
2021/03/22 09:02:36;;;;;;;31.52;8.88;;;;;;;;;;5051951;28;20393;-68
2021/03/22 09:05:14;;;;;;;28.45;9.20;;;;;;;;;;5052217;28;20013;-68
2021/03/22 09:07:40;;;;;;;26.98;9.25;;;;;;;;;;5050869;28;20102;-68
2021/03/22 09:10:27;;;;;;;28.10;8.73;;;;;;;;;;5052622;28;20068;-67
2021/03/22 09:12:52;;;;;;;32.08;11.07;;;;;;;;;;5052009;28;20111;-67
2021/03/22 09:15:34;;;;;;;27.38;9.35;;;;;;;;;;5053136;28;20438;-69
2021/03/22 09:18:02;;;;;;;24.30;8.65;;;;;;;;;;5051485;28;20031;-68
2021/03/22 09:20:29;;;;;;;36.38;9.35;;;;;;;;;;5052510;28;20481;-67
2021/03/22 09:23:02;;;;;;;27.17;8.27;;;;;;;;;;5052986;28;20117;-67
2021/03/22 09:25:45;;;;;;;26.77;8.82;;;;;;;;;;5052550;28;20066;-68
2021/03/22 09:28:25;;;;;;;15.18;6.28;;;;;;;;;;5037688;28;20025;-68
2021/03/22 09:31:04;;;;;;;17.80;5.20;;;;;;;;;;5053318;28;20017;-68
2021/03/22 09:33:48;;;;;;;14.90;5.10;;;;;;;;;;5052020;28;20027;-67
2021/03/22 09:36:25;;;;;;;18.52;5.07;;;;;;;;;;5052785;28;20040;-67
2021/03/22 09:38:50;;;;;;;13.50;3.97;;;;;;;;;;5052175;28;20075;-69
2021/03/22 09:41:16;;;;;;;13.93;3.60;;;;;;;;;;5053314;28;20036;-67
2021/03/22 09:43:42;;;;;;;21.05;3.88;;;;;;;;;;5052430;28;20025;-68
2021/03/22 09:46:24;;;;;;;13.35;3.30;;;;;;;;;;5033024;28;20459;-68
2021/03/22 09:49:07;;;;;;;11.40;2.60;;;;;;;;;;5047855;28;20085;-68
2021/03/22 09:51:33;;;;;;;10.23;3.53;;;;;;;;;;5052682;28;20393;-68
2021/03/22 09:54:00;;;;;;;9.63;2.92;;;;;;;;;;5052577;28;20021;-68
2021/03/22 09:56:31;;;;;;;8.60;2.90;;;;;;;;;;5052461;28;20025;-68
2021/03/22 09:59:19;;;;;;;15.63;4.15;;;;;;;;;;5051967;28;20017;-68
2021/03/22 10:01:44;;;;;;;7.05;3.00;;;;;;;;;;5052206;28;20029;-68
2021/03/22 10:04:09;;;;;;;8.70;2.55;;;;;;;;;;5051833;28;20032;-69
2021/03/22 10:06:41;;;;;;;12.60;3.58;;;;;;;;;;5052199;28;20020;-68
2021/03/22 10:09:17;;;;;;;11.15;2.92;;;;;;;;;;5051653;28;20060;-68
2021/03/22 10:11:43;;;;;;;12.75;3.10;;;;;;;;;;5052364;28;20025;-68
2021/03/22 10:14:14;;;;;;;14.77;3.40;;;;;;;;;;5052218;28;20028;-68
2021/03/22 10:16:40;;;;;;;8.45;2.45;;;;;;;;;;5051890;28;20021;-67
2021/03/22 10:19:23;;;;;;;8.02;2.60;;;;;;;;;;5048908;28;20024;-68
2021/03/22 10:21:50;;;;;;;17.48;3.63;;;;;;;;;;5044813;28;20075;-68
2021/03/22 10:24:36;;;;;;;15.02;3.53;;;;;;;;;;5052098;28;20108;-67
2021/03/22 10:27:03;;;;;;;9.50;3.20;;;;;;;;;;5045870;28;20039;-67
2021/03/22 10:29:29;;;;;;;11.35;3.28;;;;;;;;;;5047187;28;20025;-67
2021/03/22 10:32:12;;;;;;;9.57;3.28;;;;;;;;;;5051769;28;20056;-68
2021/03/22 10:34:49;;;;;;;8.60;3.65;;;;;;;;;;5047781;28;20009;-65
2021/03/22 10:37:25;;;;;;;14.43;3.00;;;;;;;;;;5050798;28;20521;-66
2021/03/22 10:39:51;;;;;;;14.02;4.13;;;;;;;;;;5051394;28;20112;-68
2021/03/22 10:42:36;;;;;;;19.70;4.70;;;;;;;;;;5048952;28;20033;-67
2021/03/22 10:45:14;;;;;;;13.32;3.90;;;;;;;;;;5062656;23;20163;-64
2021/03/22 10:47:39;;;;;;;11.70;4.40;;;;;;;;;;5048212;28;20025;-67
2021/03/22 10:50:24;;;;;;;10.63;5.10;;;;;;;;;;5051138;28;20224;-63
2021/03/22 10:53:01;;;;;;;13.02;4.70;;;;;;;;;;5051348;28;20554;-64
2021/03/22 10:55:27;;;;;;;10.38;4.50;;;;;;;;;;5050792;28;20067;-64
2021/03/22 10:57:53;;;;;;;16.33;6.07;;;;;;;;;;5050672;28;20432;-65
2021/03/22 11:00:35;;;;;;;24.10;5.95;;;;;;;;;;5048772;28;20083;-64
2021/03/22 11:03:04;;;;;;;13.05;6.03;;;;;;;;;;5050372;28;20488;-65
2021/03/22 11:05:32;;;;;;;18.08;6.28;;;;;;;;;;5050746;28;20017;-64
2021/03/22 11:08:01;;;;;;;20.90;6.35;;;;;;;;;;5049212;28;20028;-65
2021/03/22 11:10:26;;;;;;;23.15;6.22;;;;;;;;;;5050666;28;20044;-65
2021/03/22 11:12:52;;;;;;;17.58;5.45;;;;;;;;;;5050713;28;20453;-65
2021/03/22 11:15:19;;;;;;;15.77;6.18;;;;;;;;;;5049761;28;20098;-64
2021/03/22 11:17:45;;;;;;;13.25;5.32;;;;;;;;;;5049238;28;20025;-64
2021/03/22 11:20:11;;;;;;;15.55;5.38;;;;;;;;;;5050388;28;20051;-66
2021/03/22 11:22:38;;;;;;;12.50;5.45;;;;;;;;;;5047800;28;20355;-63
2021/03/22 11:25:23;;;;;;;16.77;5.63;;;;;;;;;;5050303;28;20469;-64
2021/03/22 11:27:54;;;;;;;15.48;5.45;;;;;;;;;;5050503;28;20025;-63
2021/03/22 11:30:29;;;;;;;13.20;6.10;;;;;;;;;;5050365;28;20434;-64
2021/03/22 11:32:54;;;;;;;16.95;5.57;;;;;;;;;;5050667;28;20091;-64
2021/03/22 11:35:23;;;;;;;18.95;7.15;;;;;;;;;;5049771;28;20013;-64
2021/03/22 11:37:53;;;;;;;22.50;6.72;;;;;;;;;;5049488;28;20092;-64
2021/03/22 11:40:20;;;;;;;12.90;7.13;;;;;;;;;;5050289;28;20305;-64
2021/03/22 11:43:02;;;;;;;20.67;8.13;;;;;;;;;;5048778;28;20437;-66
2021/03/22 11:45:39;;;;;;;19.23;6.97;;;;;;;;;;5044226;28;20048;-64
2021/03/22 11:48:24;;;;;;;15.88;7.07;;;;;;;;;;5048371;28;20527;-64
2021/03/22 11:51:00;;;;;;;15.82;7.93;;;;;;;;;;5034646;28;20481;-65
2021/03/22 11:53:25;;;;;;;19.80;7.50;;;;;;;;;;5049928;28;20021;-63
2021/03/22 11:55:54;;;;;;;16.95;7.82;;;;;;;;;;5049911;28;20017;-64
2021/03/22 11:58:37;;;;;;;17.58;8.35;;;;;;;;;;5049539;28;20021;-65
2021/03/22 12:01:16;;;;;;;17.95;9.15;;;;;;;;;;5050064;28;20021;-64
2021/03/22 12:03:41;;;;;;;15.27;7.63;;;;;;;;;;5049961;28;20028;-65
2021/03/22 12:06:09;;;;;;;11.77;6.70;;;;;;;;;;5049728;28;20021;-64
2021/03/22 12:08:42;;;;;;;12.50;7.38;;;;;;;;;;5049955;28;20025;-64
2021/03/22 12:11:11;;;;;;;16.35;6.57;;;;;;;;;;5046911;28;20013;-63
2021/03/22 12:13:37;;;;;;;20.80;6.47;;;;;;;;;;5049750;28;20028;-64
2021/03/22 12:16:02;;;;;;;11.50;5.85;;;;;;;;;;5049610;28;20025;-64
2021/03/22 12:18:32;;;;;;;13.35;6.22;;;;;;;;;;5048962;28;20462;-65
2021/03/22 12:20:58;;;;;;;9.30;5.18;;;;;;;;;;5049312;28;20036;-64
2021/03/22 12:23:23;;;;;;;13.40;4.05;;;;;;;;;;5050179;28;20017;-65
2021/03/22 12:25:49;;;;;;;10.10;5.03;;;;;;;;;;5049751;28;20053;-66
2021/03/22 12:28:14;;;;;;;14.40;4.38;;;;;;;;;;5049428;28;20024;-66
2021/03/22 12:30:40;;;;;;;11.07;4.55;;;;;;;;;;5049778;28;20017;-65
2021/03/22 12:33:05;;;;;;;8.55;3.90;;;;;;;;;;5049051;28;20025;-65
2021/03/22 12:35:32;;;;;;;10.70;4.75;;;;;;;;;;5049825;28;20013;-64
2021/03/22 12:37:58;;;;;;;11.00;4.88;;;;;;;;;;5049371;28;20500;-65
2021/03/22 12:40:23;;;;;;;12.18;5.22;;;;;;;;;;5049557;28;20017;-65
2021/03/22 12:42:49;;;;;;;16.00;4.45;;;;;;;;;;5049552;28;20052;-64
2021/03/22 12:45:21;;;;;;;10.27;4.57;;;;;;;;;;5049653;28;20435;-63
2021/03/22 12:47:47;;;;;;;14.18;4.30;;;;;;;;;;5049716;28;20032;-64
2021/03/22 12:50:21;;;;;;;14.30;4.93;;;;;;;;;;5049173;28;20357;-64
2021/03/22 12:52:47;;;;;;;14.68;4.43;;;;;;;;;;5050246;28;20032;-65
2021/03/22 12:55:13;;;;;;;11.98;4.40;;;;;;;;;;5035130;28;20026;-65
2021/03/22 12:57:38;;;;;;;12.00;4.55;;;;;;;;;;5038287;28;20028;-62
2021/03/22 13:00:03;;;;;;;12.15;4.15;;;;;;;;;;5050780;28;20488;-66
2021/03/22 13:02:29;;;;;;;7.93;3.83;;;;;;;;;;5049701;28;20059;-64
2021/03/22 13:04:54;;;;;;;8.73;3.63;;;;;;;;;;5049216;28;20021;-64
2021/03/22 13:07:19;;;;;;;13.63;4.35;;;;;;;;;;5049959;28;20025;-64
2021/03/22 13:09:45;;;;;;;10.60;3.72;;;;;;;;;;5050596;28;20029;-64
2021/03/22 13:12:17;;;;;;;6.07;3.17;;;;;;;;;;5051265;28;20021;-64
2021/03/22 13:14:42;;;;;;;11.02;3.30;;;;;;;;;;5055975;28;20103;-65
2021/03/22 13:17:10;;;;;;;8.10;2.85;;;;;;;;;;5055838;28;20060;-65
2021/03/22 13:19:35;;;;;;;8.10;3.13;;;;;;;;;;5054310;28;20108;-64
2021/03/22 13:22:00;;;;;;;10.30;2.90;;;;;;;;;;5049849;28;20099;-64
2021/03/22 13:24:26;;;;;;;5.22;2.70;;;;;;;;;;5052528;28;20505;-64
2021/03/22 13:26:51;;;;;;;17.40;3.08;;;;;;;;;;5052820;28;20025;-65
2021/03/22 13:29:16;;;;;;;15.20;3.38;;;;;;;;;;5043820;28;20032;-65
2021/03/22 13:31:42;;;;;;;26.63;3.72;;;;;;;;;;5052942;28;20052;-65
2021/03/22 13:34:08;;;;;;;12.63;3.95;;;;;;;;;;5051977;28;20013;-64
2021/03/22 13:36:34;;;;;;;15.05;4.38;;;;;;;;;;5041182;28;20366;-65
2021/03/22 13:38:59;;;;;;;8.93;3.97;;;;;;;;;;5053950;28;20013;-65
2021/03/22 13:41:30;;;;;;;18.65;4.40;;;;;;;;;;5053772;28;20477;-65
2021/03/22 13:43:56;;;;;;;9.70;3.85;;;;;;;;;;5052119;28;20358;-65
2021/03/22 13:46:22;;;;;;;11.52;4.20;;;;;;;;;;5053101;28;20017;-64
2021/03/22 13:48:47;;;;;;;10.13;4.80;;;;;;;;;;5053404;28;20121;-65
2021/03/22 13:51:25;;;;;;;18.40;4.90;;;;;;;;;;5052762;28;20116;-64
2021/03/22 13:53:50;;;;;;;11.95;4.75;;;;;;;;;;5046839;28;20052;-65
2021/03/22 13:56:15;;;;;;;9.43;4.13;;;;;;;;;;5053725;28;20044;-65
2021/03/22 13:58:40;;;;;;;17.17;4.47;;;;;;;;;;5055157;28;20365;-65
2021/03/22 14:01:06;;;;;;;16.45;4.35;;;;;;;;;;5052763;28;20031;-65
2021/03/22 14:03:31;;;;;;;12.68;4.10;;;;;;;;;;5054067;28;20028;-65
2021/03/22 14:05:57;;;;;;;14.57;4.60;;;;;;;;;;5053694;28;20025;-63
2021/03/22 14:08:23;;;;;;;12.43;3.78;;;;;;;;;;5052884;28;20035;-64
2021/03/22 14:10:48;;;;;;;11.77;4.78;;;;;;;;;;5051947;28;20505;-66
2021/03/22 14:13:14;;;;;;;14.57;4.40;;;;;;;;;;5051294;28;20024;-66
2021/03/22 14:15:40;;;;;;;9.45;4.13;;;;;;;;;;5051681;28;20075;-64
2021/03/22 14:18:07;;;;;;;15.02;4.78;;;;;;;;;;5050376;28;20479;-65
2021/03/22 14:20:33;;;;;;;12.27;3.85;;;;;;;;;;5042156;28;20025;-66
2021/03/22 14:22:58;;;;;;;10.68;3.67;;;;;;;;;;5054508;28;20074;-65
2021/03/22 14:25:23;;;;;;;11.77;3.15;;;;;;;;;;5051275;28;20040;-64
2021/03/22 14:27:49;;;;;;;18.83;3.47;;;;;;;;;;5052013;28;20017;-65
2021/03/22 14:30:19;;;;;;;11.43;4.10;;;;;;;;;;5059381;28;20086;-65
2021/03/22 14:32:44;;;;;;;12.95;3.53;;;;;;;;;;5052866;28;20036;-64
2021/03/22 14:35:10;;;;;;;9.57;2.95;;;;;;;;;;5039611;28;20021;-64
2021/03/22 14:37:35;;;;;;;7.43;2.92;;;;;;;;;;5052224;28;20033;-62
2021/03/22 14:40:00;;;;;;;8.05;3.20;;;;;;;;;;5052293;28;20017;-65
2021/03/22 14:42:25;;;;;;;12.00;3.25;;;;;;;;;;5052460;28;20033;-65